createdAt,value
2023-03-02T00:01:06.235Z,62.38
2023-03-02T00:03:53.228Z,62.56
2023-03-02T00:06:40.138Z,62.43
2023-03-02T00:09:28.159Z,62.35
2023-03-02T00:12:15.845Z,62.49
2023-03-02T00:15:02.637Z,62.39
2023-03-02T00:17:49.614Z,62.62
2023-03-02T00:20:36.961Z,62.72
2023-03-02T00:23:23.764Z,62.56
2023-03-02T00:26:10.755Z,62.47
2023-03-02T00:28:57.515Z,62.65
2023-03-02T00:31:44.409Z,62.63
2023-03-02T00:34:34.702Z,62.76
2023-03-02T00:37:29.237Z,62.72
2023-03-02T00:40:16.243Z,62.71
2023-03-02T00:43:03.656Z,62.64
2023-03-02T00:45:50.448Z,62.76
2023-03-02T00:48:37.260Z,62.81
2023-03-02T00:51:25.071Z,62.95
2023-03-02T00:54:11.927Z,62.66
2023-03-02T00:56:58.804Z,62.86
2023-03-02T00:59:45.623Z,62.88
2023-03-02T01:02:32.586Z,62.59
2023-03-02T01:05:19.480Z,62.84
2023-03-02T01:08:06.443Z,62.79
2023-03-02T01:10:54.325Z,62.93
2023-03-02T01:13:41.259Z,63.27
2023-03-02T01:16:28.255Z,62.91
2023-03-02T01:19:15.574Z,63.00
2023-03-02T01:22:03.032Z,63.00
2023-03-02T01:24:50.379Z,62.96
2023-03-02T01:27:37.468Z,63.28
2023-03-02T01:30:24.367Z,63.02
2023-03-02T01:33:11.126Z,63.03
2023-03-02T01:36:05.798Z,63.11
2023-03-02T01:38:54.180Z,63.06
2023-03-02T01:41:41.738Z,63.07
2023-03-02T01:44:52.528Z,62.86
2023-03-02T01:47:39.761Z,63.25
2023-03-02T01:50:26.966Z,63.20
2023-03-02T01:53:15.432Z,63.37
2023-03-02T01:56:04.023Z,63.08
2023-03-02T01:58:54.483Z,63.00
2023-03-02T02:01:44.296Z,63.30
2023-03-02T02:04:32.337Z,63.35
2023-03-02T02:07:19.125Z,62.87
2023-03-02T02:10:06.578Z,63.15
2023-03-02T02:12:53.499Z,63.23
2023-03-02T02:15:41.495Z,63.17
2023-03-02T02:18:28.331Z,62.91
2023-03-02T02:21:15.955Z,63.26
2023-03-02T02:24:16.898Z,63.22
2023-03-02T02:27:03.938Z,63.15
2023-03-02T02:29:51.575Z,63.52
2023-03-02T02:32:39.693Z,63.07
2023-03-02T02:35:28.341Z,63.08
2023-03-02T02:38:17.587Z,63.40
2023-03-02T02:41:07.048Z,63.23
2023-03-02T02:43:54.972Z,63.22
2023-03-02T02:46:41.937Z,63.11
2023-03-02T02:49:35.126Z,63.39
2023-03-02T02:52:24.099Z,63.22
2023-03-02T02:55:16.029Z,63.26
2023-03-02T02:58:09.938Z,63.16
2023-03-02T03:00:56.862Z,63.22
2023-03-02T03:03:50.426Z,63.23
2023-03-02T03:06:42.479Z,63.24
2023-03-02T03:09:30.638Z,63.10
2023-03-02T03:12:21.687Z,63.26
2023-03-02T03:15:09.580Z,63.20
2023-03-02T03:17:57.878Z,63.64
2023-03-02T03:20:45.417Z,63.48
2023-03-02T03:23:32.230Z,63.16
2023-03-02T03:26:19.340Z,63.29
2023-03-02T03:29:06.735Z,63.24
2023-03-02T03:31:55.836Z,63.39
2023-03-02T03:34:43.332Z,63.59
2023-03-02T03:37:30.156Z,63.17
2023-03-02T03:40:17.053Z,63.54
2023-03-02T03:43:04.220Z,63.43
2023-03-02T03:45:52.071Z,63.10
2023-03-02T03:48:39.341Z,63.95
2023-03-02T03:51:26.487Z,63.80
2023-03-02T03:54:13.431Z,63.66
2023-03-02T03:57:00.311Z,63.49
2023-03-02T03:59:47.197Z,63.54
2023-03-02T04:02:34.397Z,63.80
2023-03-02T04:05:21.440Z,63.42
2023-03-02T04:08:08.837Z,63.04
2023-03-02T04:10:55.717Z,63.66
2023-03-02T04:13:42.545Z,63.50
2023-03-02T04:16:30.243Z,63.87
2023-03-02T04:19:17.660Z,63.59
2023-03-02T04:22:04.665Z,63.69
2023-03-02T04:24:54.760Z,64.10
2023-03-02T04:27:41.630Z,63.67
2023-03-02T04:30:28.660Z,63.80
2023-03-02T04:33:15.469Z,63.93
2023-03-02T04:36:02.400Z,63.93
2023-03-02T04:38:49.530Z,64.07
2023-03-02T04:41:36.652Z,63.97
2023-03-02T04:44:23.590Z,64.12
2023-03-02T04:47:10.738Z,63.90
2023-03-02T04:49:57.740Z,63.86
2023-03-02T04:52:44.577Z,64.07
2023-03-02T04:55:31.536Z,63.74
2023-03-02T04:58:18.358Z,63.54
2023-03-02T05:01:05.527Z,63.64
2023-03-02T05:03:52.642Z,64.44
2023-03-02T05:06:39.632Z,63.79
2023-03-02T05:09:30.866Z,64.03
2023-03-02T05:12:19.262Z,64.08
2023-03-02T05:15:06.591Z,64.42
2023-03-02T05:17:53.496Z,64.34
2023-03-02T05:20:40.417Z,64.30
2023-03-02T05:23:28.869Z,63.94
2023-03-02T05:26:16.148Z,63.83
2023-03-02T05:29:03.351Z,64.05
2023-03-02T05:31:50.606Z,63.88
2023-03-02T05:34:37.410Z,64.18
2023-03-02T05:37:25.706Z,64.14
2023-03-02T05:40:15.538Z,64.30
2023-03-02T05:43:02.378Z,64.22
2023-03-02T05:45:49.473Z,64.27
2023-03-02T05:48:36.425Z,64.22
2023-03-02T05:51:23.263Z,64.42
2023-03-02T05:54:10.037Z,64.36
2023-03-02T05:56:56.887Z,63.77
2023-03-02T05:59:46.495Z,64.10
2023-03-02T06:02:33.320Z,64.39
2023-03-02T06:05:20.237Z,64.00
2023-03-02T06:08:07.298Z,64.16
2023-03-02T06:10:57.222Z,63.76
2023-03-02T06:13:44.043Z,63.69
2023-03-02T06:16:32.050Z,63.98
2023-03-02T06:19:19.099Z,64.53
2023-03-02T06:22:05.934Z,63.76
2023-03-02T06:24:55.174Z,64.06
2023-03-02T06:27:42.842Z,63.79
2023-03-02T06:30:29.608Z,64.68
2023-03-02T06:33:18.192Z,64.03
2023-03-02T06:36:05.761Z,64.54
2023-03-02T06:38:52.608Z,63.99
2023-03-02T06:41:39.412Z,64.42
2023-03-02T06:44:26.178Z,64.18
2023-03-02T06:47:12.997Z,64.11
2023-03-02T06:50:00.060Z,64.35
2023-03-02T06:52:47.014Z,64.71
2023-03-02T06:55:33.840Z,64.31
2023-03-02T06:58:20.685Z,64.34
2023-03-02T07:01:08.011Z,64.00
2023-03-02T07:03:54.971Z,64.26
2023-03-02T07:06:41.988Z,64.57
2023-03-02T07:09:30.817Z,64.67
2023-03-02T07:12:17.717Z,64.80
2023-03-02T07:15:05.351Z,64.22
2023-03-02T07:17:52.169Z,64.29
2023-03-02T07:20:39.652Z,64.84
2023-03-02T07:23:26.510Z,64.80
2023-03-02T07:26:13.311Z,64.27
2023-03-02T07:29:00.224Z,64.81
2023-03-02T07:31:47.080Z,64.89
2023-03-02T07:34:34.142Z,64.70
2023-03-02T07:37:20.921Z,64.49
2023-03-02T07:40:08.264Z,65.19
2023-03-02T07:42:55.084Z,64.89
2023-03-02T07:45:41.917Z,64.82
2023-03-02T07:48:28.730Z,64.82
2023-03-02T07:51:15.500Z,64.70
2023-03-02T07:54:04.882Z,65.10
2023-03-02T07:56:51.878Z,64.54
2023-03-02T07:59:38.691Z,64.75
2023-03-02T08:02:25.711Z,64.98
2023-03-02T08:05:13.269Z,65.01
2023-03-02T08:08:00.112Z,65.02
2023-03-02T08:10:47.174Z,64.93
2023-03-02T08:13:34.155Z,65.12
2023-03-02T08:16:22.079Z,64.55
2023-03-02T08:19:09.106Z,64.98
2023-03-02T08:21:55.968Z,65.05
2023-03-02T08:24:42.987Z,64.70
2023-03-02T08:27:29.838Z,64.82
2023-03-02T08:30:18.027Z,64.74
2023-03-02T08:33:07.055Z,64.88
2023-03-02T08:36:01.041Z,65.38
2023-03-02T08:38:49.136Z,65.27
2023-03-02T08:41:36.174Z,64.77
2023-03-02T08:44:23.169Z,64.92
2023-03-02T08:47:09.964Z,65.35
2023-03-02T08:49:56.879Z,65.37
2023-03-02T08:52:43.710Z,65.52
2023-03-02T08:55:30.586Z,65.38
2023-03-02T08:58:17.419Z,65.57
2023-03-02T09:01:05.541Z,65.22
2023-03-02T09:03:54.601Z,65.50
2023-03-02T09:06:43.504Z,65.68
2023-03-02T09:09:30.315Z,65.88
2023-03-02T09:12:17.155Z,65.92
2023-03-02T09:15:04.318Z,65.64
2023-03-02T09:17:51.208Z,66.41
2023-03-02T09:20:38.090Z,65.95
2023-03-02T09:23:25.985Z,66.14
2023-03-02T09:26:12.815Z,65.63
2023-03-02T09:28:59.728Z,66.22
2023-03-02T09:31:46.664Z,66.18
2023-03-02T09:34:33.514Z,66.15
2023-03-02T09:37:20.355Z,66.26
2023-03-02T09:40:19.922Z,66.01
2023-03-02T09:43:28.339Z,66.39
2023-03-02T09:46:17.287Z,65.96
2023-03-02T09:49:37.973Z,66.27
2023-03-02T09:52:41.076Z,65.98
2023-03-02T09:55:29.073Z,66.28
2023-03-02T09:58:18.210Z,66.13
2023-03-02T10:01:11.855Z,66.24
2023-03-02T10:04:29.688Z,66.35
2023-03-02T10:07:28.650Z,66.38
2023-03-02T10:10:18.545Z,66.35
2023-03-02T10:13:17.745Z,66.59
2023-03-02T10:16:23.864Z,66.60
2023-03-02T10:19:14.170Z,66.40
2023-03-02T10:22:18.181Z,66.42
2023-03-02T10:25:08.685Z,66.65
2023-03-02T10:28:22.914Z,66.47
2023-03-02T10:31:17.155Z,66.66
2023-03-02T10:34:13.095Z,66.12
2023-03-02T10:37:00.026Z,66.68
2023-03-02T10:39:47.075Z,66.45
2023-03-02T10:42:38.053Z,66.91
2023-03-02T10:45:29.109Z,66.76
2023-03-02T10:48:15.944Z,66.63
2023-03-02T10:51:03.536Z,66.64
2023-03-02T10:53:50.368Z,66.62
2023-03-02T10:56:37.518Z,66.69
2023-03-02T10:59:46.139Z,66.52
2023-03-02T11:02:35.090Z,66.70
2023-03-02T11:05:27.928Z,66.67
2023-03-02T11:08:23.970Z,66.83
2023-03-02T11:11:25.158Z,66.57
2023-03-02T11:14:16.517Z,66.69
2023-03-02T11:17:22.890Z,66.78
2023-03-02T11:20:20.492Z,66.53
2023-03-02T11:23:16.250Z,66.73
2023-03-02T11:26:23.497Z,67.00
2023-03-02T11:29:42.073Z,66.64
2023-03-02T11:32:40.657Z,66.76
2023-03-02T11:35:30.661Z,66.77
2023-03-02T11:38:23.772Z,66.61
2023-03-02T11:41:32.481Z,66.81
2023-03-02T11:44:20.781Z,66.92
2023-03-02T11:47:10.688Z,66.37
2023-03-02T11:50:01.888Z,66.51
2023-03-02T11:52:54.437Z,66.57
2023-03-02T11:55:45.780Z,66.39
2023-03-02T11:58:33.206Z,66.47
2023-03-02T12:01:22.986Z,66.34
2023-03-02T12:04:26.253Z,66.38
2023-03-02T12:07:23.350Z,66.46
2023-03-02T12:10:28.404Z,66.83
2023-03-02T12:13:33.228Z,66.81
2023-03-02T12:16:20.192Z,66.57
2023-03-02T12:19:17.325Z,66.52
2023-03-02T12:22:06.882Z,66.80
2023-03-02T12:25:07.462Z,66.94
2023-03-02T12:27:55.305Z,67.04
2023-03-02T12:30:42.236Z,66.32
2023-03-02T12:33:29.092Z,66.77
2023-03-02T12:36:21.887Z,66.46
2023-03-02T12:39:26.843Z,66.85
2023-03-02T12:42:42.877Z,66.39
2023-03-02T12:45:51.267Z,66.26
2023-03-02T12:48:44.426Z,66.11
2023-03-02T12:51:51.412Z,65.96
2023-03-02T12:54:38.506Z,66.17
2023-03-02T12:57:25.647Z,66.05
2023-03-02T13:00:17.949Z,65.95
2023-03-02T13:03:07.233Z,66.05
2023-03-02T13:06:10.446Z,66.17
2023-03-02T13:09:02.022Z,65.73
2023-03-02T13:11:49.816Z,65.91
2023-03-02T13:14:40.981Z,65.74
2023-03-02T13:17:33.452Z,65.75
2023-03-02T13:20:21.209Z,65.71
2023-03-02T13:23:12.338Z,66.11
2023-03-02T13:26:03.758Z,65.89
2023-03-02T13:29:20.728Z,65.91
2023-03-02T13:32:14.853Z,65.74
2023-03-02T13:35:02.889Z,65.69
2023-03-02T13:38:06.315Z,65.65
2023-03-02T13:40:54.580Z,65.41
2023-03-02T13:43:41.405Z,65.55
2023-03-02T13:46:35.066Z,66.03
2023-03-02T13:49:33.045Z,65.75
2023-03-02T13:52:25.884Z,65.35
2023-03-02T13:55:17.340Z,65.61
2023-03-02T13:58:05.564Z,65.71
2023-03-02T14:00:52.861Z,65.56
2023-03-02T14:03:39.622Z,65.39
2023-03-02T14:06:26.520Z,65.46
2023-03-02T14:09:14.132Z,65.58
2023-03-02T14:12:00.942Z,65.85
2023-03-02T14:14:47.887Z,65.82
2023-03-02T14:17:37.784Z,65.25
2023-03-02T14:20:24.656Z,65.57
2023-03-02T14:23:11.552Z,65.51
2023-03-02T14:25:58.400Z,65.41
2023-03-02T14:28:47.427Z,65.60
2023-03-02T14:31:37.855Z,65.38
2023-03-02T14:34:24.717Z,65.48
2023-03-02T14:37:14.216Z,65.65
2023-03-02T14:40:06.447Z,65.63
2023-03-02T14:42:53.585Z,65.51
2023-03-02T14:45:40.424Z,65.51
2023-03-02T14:48:27.244Z,65.57
2023-03-02T14:51:28.857Z,65.50
2023-03-02T14:54:21.351Z,65.19
2023-03-02T14:57:20.816Z,65.45
2023-03-02T15:00:12.521Z,65.75
2023-03-02T15:02:59.512Z,65.75
2023-03-02T15:06:00.212Z,65.24
2023-03-02T15:08:47.611Z,65.48
2023-03-02T15:11:35.162Z,65.39
2023-03-02T15:14:22.317Z,65.74
2023-03-02T15:17:10.748Z,65.47
2023-03-02T15:19:57.581Z,65.37
2023-03-02T15:22:44.710Z,65.29
2023-03-02T15:25:31.700Z,65.42
2023-03-02T15:28:21.193Z,65.62
2023-03-02T15:31:15.987Z,65.56
2023-03-02T15:34:02.853Z,65.44
2023-03-02T15:36:49.816Z,65.39
2023-03-02T15:39:36.604Z,65.16
2023-03-02T15:42:23.731Z,65.37
2023-03-02T15:45:10.989Z,65.54
2023-03-02T15:47:57.839Z,65.50
2023-03-02T15:50:44.627Z,65.43
2023-03-02T15:53:36.060Z,65.28
2023-03-02T15:56:28.358Z,65.78
2023-03-02T15:59:17.671Z,65.48
2023-03-02T16:02:05.062Z,65.42
2023-03-02T16:04:51.970Z,65.40
2023-03-02T16:07:38.837Z,65.74
2023-03-02T16:10:30.053Z,65.54
2023-03-02T16:13:18.798Z,65.08
2023-03-02T16:16:06.270Z,65.69
2023-03-02T16:18:54.639Z,65.80
2023-03-02T16:21:42.399Z,65.62
2023-03-02T16:24:29.280Z,65.59
2023-03-02T16:27:18.797Z,65.27
2023-03-02T16:30:06.138Z,65.24
2023-03-02T16:32:57.328Z,65.37
2023-03-02T16:35:44.180Z,65.29
2023-03-02T16:38:31.231Z,65.55
2023-03-02T16:41:20.507Z,65.19
2023-03-02T16:44:10.539Z,65.52
2023-03-02T16:46:57.715Z,65.38
2023-03-02T16:49:44.618Z,65.51
2023-03-02T16:52:31.435Z,65.51
2023-03-02T16:55:19.544Z,65.40
2023-03-02T16:58:06.667Z,65.56
2023-03-02T17:00:54.205Z,65.52
2023-03-02T17:03:41.501Z,65.50
2023-03-02T17:06:28.389Z,65.23
2023-03-02T17:09:15.177Z,65.24
2023-03-02T17:12:02.086Z,65.02
2023-03-02T17:14:49.008Z,65.34
2023-03-02T17:17:35.933Z,65.41
2023-03-02T17:20:22.755Z,65.21
2023-03-02T17:23:11.875Z,65.38
2023-03-02T17:25:58.607Z,65.13
2023-03-02T17:28:45.412Z,65.26
2023-03-02T17:31:32.339Z,65.01
2023-03-02T17:34:19.273Z,65.05
2023-03-02T17:37:06.058Z,65.08
2023-03-02T17:39:55.210Z,65.16
2023-03-02T17:42:41.939Z,65.35
2023-03-02T17:45:29.878Z,65.23
2023-03-02T17:48:16.789Z,65.24
2023-03-02T17:51:03.780Z,65.07
2023-03-02T17:53:52.660Z,65.08
2023-03-02T17:56:39.543Z,65.17
2023-03-02T17:59:26.309Z,65.14
2023-03-02T18:02:13.205Z,65.10
2023-03-02T18:05:00.149Z,64.88
2023-03-02T18:07:47.019Z,64.89
2023-03-02T18:10:33.814Z,64.98
2023-03-02T18:13:20.650Z,64.98
2023-03-02T18:16:07.579Z,65.02
2023-03-02T18:18:54.940Z,64.91
2023-03-02T18:21:42.527Z,64.95
2023-03-02T18:24:29.510Z,64.75
2023-03-02T18:27:16.323Z,64.45
2023-03-02T18:30:03.638Z,64.45
2023-03-02T18:32:53.713Z,64.37
2023-03-02T18:35:43.487Z,64.40
2023-03-02T18:38:44.601Z,64.24
2023-03-02T18:41:32.390Z,63.80
2023-03-02T18:44:22.372Z,64.62
2023-03-02T18:47:10.474Z,64.51
2023-03-02T18:49:58.511Z,63.80
2023-03-02T18:52:50.256Z,64.37
2023-03-02T18:55:37.234Z,64.55
2023-03-02T18:58:29.041Z,64.12
2023-03-02T19:01:18.016Z,63.80
2023-03-02T19:04:05.609Z,63.94
2023-03-02T19:07:00.821Z,63.96
2023-03-02T19:09:47.583Z,64.26
2023-03-02T19:12:35.519Z,63.99
2023-03-02T19:15:30.137Z,63.88
2023-03-02T19:18:21.903Z,63.90
2023-03-02T19:21:16.338Z,63.62
2023-03-02T19:24:10.894Z,63.50
2023-03-02T19:26:57.920Z,63.38
2023-03-02T19:29:44.684Z,63.51
2023-03-02T19:32:31.566Z,63.46
2023-03-02T19:35:18.483Z,63.23
2023-03-02T19:38:06.247Z,63.18
2023-03-02T19:40:53.080Z,63.25
2023-03-02T19:43:41.931Z,63.47
2023-03-02T19:46:34.515Z,63.24
2023-03-02T19:49:21.464Z,63.16
2023-03-02T19:52:13.436Z,63.14
2023-03-02T19:55:00.359Z,63.17
2023-03-02T19:57:52.171Z,63.26
2023-03-02T20:00:39.308Z,63.32
2023-03-02T20:03:29.259Z,62.64
2023-03-02T20:09:20.929Z,62.95
2023-03-02T20:12:12.250Z,62.98
2023-03-02T20:15:08.041Z,63.06
2023-03-02T20:17:54.925Z,62.71
2023-03-02T20:20:42.853Z,62.94
2023-03-02T20:23:29.679Z,63.13
2023-03-02T20:26:17.982Z,62.94
2023-03-02T20:29:08.070Z,63.23
2023-03-02T20:32:01.607Z,62.69
2023-03-02T20:34:51.966Z,62.82
2023-03-02T20:37:42.066Z,62.82
2023-03-02T20:40:29.406Z,62.93
2023-03-02T20:43:17.130Z,63.24
2023-03-02T20:46:07.374Z,62.78
2023-03-02T20:48:55.013Z,62.98
2023-03-02T20:51:45.453Z,62.74
2023-03-02T20:54:36.304Z,62.77
2023-03-02T20:57:23.718Z,62.76
2023-03-02T21:00:17.687Z,63.02
2023-03-02T21:03:05.404Z,63.21
2023-03-02T21:05:52.343Z,62.97
2023-03-02T21:08:39.605Z,62.90
2023-03-02T21:11:26.908Z,62.99
2023-03-02T21:14:14.252Z,62.83
2023-03-02T21:17:01.551Z,62.80
2023-03-02T21:19:48.356Z,62.66
2023-03-02T21:22:36.369Z,62.69
2023-03-02T21:25:23.141Z,62.76
2023-03-02T21:28:10.122Z,62.94
2023-03-02T21:30:58.811Z,62.82
2023-03-02T21:33:45.854Z,62.82
2023-03-02T21:36:36.220Z,62.69
2023-03-02T21:39:23.617Z,62.85
2023-03-02T21:42:10.471Z,62.83
2023-03-02T21:44:57.263Z,62.95
2023-03-02T21:47:44.432Z,62.86
2023-03-02T21:50:33.313Z,62.88
2023-03-02T21:53:20.173Z,62.74
2023-03-02T21:56:07.535Z,63.28
2023-03-02T21:58:56.785Z,62.93
2023-03-02T22:01:44.002Z,63.18
2023-03-02T22:04:30.896Z,62.72
2023-03-02T22:07:17.641Z,62.73
2023-03-02T22:10:04.536Z,62.96
2023-03-02T22:12:55.095Z,63.13
2023-03-02T22:15:41.860Z,63.23
2023-03-02T22:18:28.617Z,62.77
2023-03-02T22:21:29.956Z,62.65
2023-03-02T22:24:27.796Z,62.98
2023-03-02T22:27:24.531Z,63.16
2023-03-02T22:30:16.058Z,62.94
2023-03-02T22:33:05.052Z,62.97
2023-03-02T22:35:53.124Z,63.00
2023-03-02T22:38:39.830Z,63.02
2023-03-02T22:41:26.866Z,62.74
2023-03-02T22:44:13.697Z,62.66
2023-03-02T22:47:00.505Z,62.63
2023-03-02T22:49:47.630Z,62.78
2023-03-02T22:52:39.195Z,62.69
2023-03-02T22:55:28.671Z,62.68
2023-03-02T22:58:27.734Z,63.17
2023-03-02T23:01:27.372Z,62.79
2023-03-02T23:04:16.289Z,63.08
2023-03-02T23:07:13.892Z,63.14
2023-03-02T23:10:03.474Z,62.66
2023-03-02T23:12:51.398Z,62.71
2023-03-02T23:15:38.157Z,63.18
2023-03-02T23:18:28.782Z,62.81
2023-03-02T23:21:29.013Z,63.12
2023-03-02T23:24:17.676Z,62.75
2023-03-02T23:27:06.286Z,63.29
2023-03-02T23:29:52.980Z,62.75
2023-03-02T23:32:40.853Z,63.07
2023-03-02T23:35:27.643Z,62.68
2023-03-02T23:38:14.405Z,63.23
2023-03-02T23:41:03.009Z,63.18
2023-03-02T23:43:49.706Z,63.18
2023-03-02T23:46:36.461Z,63.33
2023-03-02T23:49:23.186Z,63.11
2023-03-02T23:52:09.938Z,62.68
2023-03-02T23:54:56.763Z,63.33
2023-03-02T23:57:43.420Z,63.43
